Time;durP1;ratioP1;P1;durP2;ratioP2;P2;SDS_P1;SDS_P2;PMS_P1;PMS_P2;Temp;Humidity;BMP_temperature;BMP_pressure;BME280_temperature;BME280_humidity;BME280_pressure;Samples;Min_cycle;Max_cycle;Signal;HPM_P1;HPM_P2
2021/09/14 00:02:17;;;;;;;10.30;7.53;;;14.90;99.90;;;;;;4916717;29;20031;-77
2021/09/14 00:04:42;;;;;;;9.93;6.95;;;14.90;99.90;;;;;;4915893;29;20467;-76
2021/09/14 00:07:08;;;;;;;8.70;6.57;;;14.90;99.90;;;;;;4916438;29;20028;-76
2021/09/14 00:09:34;;;;;;;8.02;7.25;;;14.90;99.90;;;;;;4916545;29;20031;-76
2021/09/14 00:11:59;;;;;;;8.45;6.78;;;14.90;99.90;;;;;;4915811;29;20056;-76
2021/09/14 00:14:25;;;;;;;10.40;7.65;;;14.90;99.90;;;;;;4916412;29;20050;-76
2021/09/14 00:16:51;;;;;;;8.13;6.93;;;14.90;99.90;;;;;;4916327;29;20098;-76
2021/09/14 00:19:17;;;;;;;11.50;7.25;;;14.80;99.90;;;;;;4915427;29;20020;-77
2021/09/14 00:21:43;;;;;;;7.35;6.47;;;14.80;99.90;;;;;;4916169;29;20397;-76
2021/09/14 00:24:09;;;;;;;8.23;6.10;;;14.80;99.90;;;;;;4916650;29;20044;-76
2021/09/14 00:26:34;;;;;;;9.23;6.05;;;14.80;99.90;;;;;;4916486;29;20115;-76
2021/09/14 00:29:00;;;;;;;9.05;7.05;;;14.80;99.90;;;;;;4916260;29;20035;-76
2021/09/14 00:31:27;;;;;;;11.88;7.80;;;14.80;99.90;;;;;;4915421;29;20052;-77
2021/09/14 00:33:53;;;;;;;12.95;7.15;;;14.80;99.90;;;;;;4916366;29;20111;-77
2021/09/14 00:36:18;;;;;;;8.60;6.53;;;14.70;99.90;;;;;;4916160;29;20115;-76
2021/09/14 00:38:44;;;;;;;7.43;6.07;;;14.70;99.90;;;;;;4915305;29;20495;-76
2021/09/14 00:41:10;;;;;;;12.73;7.35;;;14.70;99.90;;;;;;4915913;29;20044;-77
2021/09/14 00:43:36;;;;;;;10.55;7.22;;;14.70;99.90;;;;;;4916275;29;20016;-77
2021/09/14 00:46:01;;;;;;;8.65;7.18;;;14.70;99.90;;;;;;4914997;29;20028;-77
2021/09/14 00:48:27;;;;;;;7.70;6.68;;;14.70;99.90;;;;;;4915658;29;20028;-77
2021/09/14 00:50:53;;;;;;;8.40;6.43;;;14.70;99.90;;;;;;4917417;29;20128;-76
2021/09/14 00:53:21;;;;;;;9.07;6.32;;;14.70;99.90;;;;;;4915376;29;20020;-77
2021/09/14 00:55:47;;;;;;;8.65;6.78;;;14.60;99.90;;;;;;4916071;29;20495;-77
2021/09/14 00:58:13;;;;;;;7.97;6.82;;;14.60;99.90;;;;;;4915551;29;20456;-77
2021/09/14 01:00:38;;;;;;;7.25;6.55;;;14.60;99.90;;;;;;4916476;29;20475;-77
2021/09/14 01:03:05;;;;;;;10.60;7.55;;;14.60;99.90;;;;;;4915567;29;20020;-78
2021/09/14 01:05:30;;;;;;;10.95;7.93;;;14.60;99.90;;;;;;4915914;29;20533;-77
2021/09/14 01:07:57;;;;;;;7.55;6.65;;;14.60;99.90;;;;;;4915904;29;20025;-77
2021/09/14 01:10:23;;;;;;;7.85;7.03;;;14.50;99.90;;;;;;4916009;29;20072;-78
2021/09/14 01:12:49;;;;;;;7.80;6.80;;;14.50;99.90;;;;;;4916634;29;20024;-78
2021/09/14 01:15:15;;;;;;;10.18;6.43;;;14.50;99.90;;;;;;4914635;29;20024;-78
2021/09/14 01:17:41;;;;;;;8.57;6.22;;;14.50;99.90;;;;;;4915492;29;20040;-78
2021/09/14 01:20:08;;;;;;;9.38;6.15;;;14.50;99.90;;;;;;4915259;29;20495;-77
2021/09/14 01:22:34;;;;;;;7.00;6.30;;;14.40;99.90;;;;;;4916028;29;20040;-77
2021/09/14 01:25:12;;;;;;;9.35;6.65;;;14.40;99.90;;;;;;4915157;29;20017;-77
2021/09/14 01:27:38;;;;;;;7.63;6.72;;;14.40;99.90;;;;;;4914779;29;20525;-77
2021/09/14 01:30:13;;;;;;;7.80;6.70;;;14.40;99.90;;;;;;4914774;29;20091;-77
2021/09/14 01:32:43;;;;;;;8.65;6.43;;;14.40;99.90;;;;;;4915206;29;20382;-77
2021/09/14 01:35:17;;;;;;;6.40;5.80;;;14.30;99.90;;;;;;4914298;29;20016;-77
2021/09/14 01:37:43;;;;;;;10.77;7.43;;;14.40;99.90;;;;;;4915408;29;20028;-77
2021/09/14 01:40:09;;;;;;;7.90;7.07;;;14.30;99.90;;;;;;4915030;29;20027;-77
2021/09/14 01:42:35;;;;;;;7.18;6.47;;;14.30;99.90;;;;;;4918358;29;20075;-78
2021/09/14 01:45:01;;;;;;;7.53;6.45;;;14.30;99.90;;;;;;4921401;29;20020;-78
2021/09/14 01:47:26;;;;;;;8.25;6.35;;;14.30;99.90;;;;;;4921570;29;20080;-78
2021/09/14 01:49:52;;;;;;;7.00;6.30;;;14.20;99.90;;;;;;4920832;29;20024;-78
2021/09/14 01:52:18;;;;;;;8.23;6.28;;;14.20;99.90;;;;;;4921217;29;20031;-78
2021/09/14 01:54:43;;;;;;;7.93;6.65;;;14.20;99.90;;;;;;4921476;29;20484;-78
2021/09/14 01:57:09;;;;;;;7.15;6.03;;;14.20;99.90;;;;;;4920345;29;20075;-78
2021/09/14 01:59:36;;;;;;;7.72;6.90;;;14.20;99.90;;;;;;4921155;29;20555;-76
2021/09/14 02:02:13;;;;;;;8.05;7.13;;;14.20;99.90;;;;;;4921387;29;20036;-76
2021/09/14 02:07:21;;;;;;;;;;;14.10;99.90;;;;;;4922760;29;20438;-76
2021/09/14 02:39:58;;;;;;;8.15;7.22;;;13.90;99.90;;;;;;4921570;29;20075;-77
2021/09/14 02:42:56;;;;;;;11.13;8.02;;;13.90;99.90;;;;;;4922642;29;20074;-78
2021/09/14 02:56:43;;;;;;;10.50;7.78;;;13.90;99.90;;;;;;4919062;29;20103;-78
2021/09/14 02:59:09;;;;;;;9.57;8.00;;;13.80;99.90;;;;;;4917124;29;20116;-77
2021/09/14 03:01:34;;;;;;;8.57;7.68;;;13.80;99.90;;;;;;4918196;29;20111;-77
2021/09/14 03:04:02;;;;;;;9.50;7.30;;;13.80;99.90;;;;;;4917891;29;20110;-78
2021/09/14 03:06:28;;;;;;;9.30;7.78;;;13.80;99.90;;;;;;4918319;29;20032;-77
2021/09/14 03:08:53;;;;;;;9.27;7.70;;;13.80;99.90;;;;;;4918573;29;20437;-77
2021/09/14 03:11:20;;;;;;;8.07;7.22;;;13.80;99.90;;;;;;4918013;29;20028;-77
2021/09/14 03:13:46;;;;;;;8.85;7.95;;;13.80;99.90;;;;;;4916992;29;20111;-77
2021/09/14 03:16:13;;;;;;;9.43;7.85;;;13.70;99.90;;;;;;4918562;29;20437;-78
2021/09/14 03:18:39;;;;;;;9.00;8.05;;;13.70;99.90;;;;;;4917616;29;20466;-78
2021/09/14 03:21:07;;;;;;;8.52;7.63;;;13.70;99.90;;;;;;4916613;29;20052;-79
2021/09/14 03:23:33;;;;;;;11.15;8.00;;;13.70;99.90;;;;;;4918608;29;20034;-79
2021/09/14 03:25:59;;;;;;;9.45;8.35;;;13.70;99.90;;;;;;4917367;29;20054;-76
2021/09/14 03:28:25;;;;;;;9.00;8.02;;;13.70;99.90;;;;;;4916447;29;20473;-78
2021/09/14 03:30:51;;;;;;;9.10;8.13;;;13.60;99.90;;;;;;4917147;29;20048;-76
2021/09/14 03:33:16;;;;;;;10.27;9.18;;;13.60;99.90;;;;;;4917084;29;20047;-78
2021/09/14 03:35:42;;;;;;;9.35;8.23;;;13.60;99.90;;;;;;4918338;29;20086;-76
2021/09/14 03:38:08;;;;;;;9.57;8.13;;;13.60;99.90;;;;;;4916820;29;20475;-77
2021/09/14 03:40:34;;;;;;;10.30;8.57;;;13.60;99.90;;;;;;4917488;29;20076;-77
2021/09/14 03:43:00;;;;;;;18.30;9.27;;;13.60;99.90;;;;;;4916168;29;20496;-77
2021/09/14 03:45:26;;;;;;;11.40;9.13;;;13.50;99.90;;;;;;4917328;29;20025;-76
2021/09/14 03:47:52;;;;;;;10.93;9.80;;;13.60;99.90;;;;;;4916920;29;20031;-77
2021/09/14 03:50:17;;;;;;;12.35;9.35;;;13.50;99.90;;;;;;4919611;29;20399;-76
2021/09/14 03:52:43;;;;;;;11.25;9.63;;;13.60;99.90;;;;;;4916918;29;20540;-75
2021/09/14 03:55:09;;;;;;;11.80;10.38;;;13.60;99.90;;;;;;4921592;29;20484;-77
2021/09/14 03:57:35;;;;;;;11.77;10.15;;;13.60;99.90;;;;;;4937263;29;20039;-77
2021/09/14 04:00:01;;;;;;;11.18;9.48;;;13.60;99.90;;;;;;4935783;29;20480;-77
2021/09/14 04:02:45;;;;;;;14.57;9.20;;;13.60;99.90;;;;;;4935243;29;20086;-76
2021/09/14 04:10:33;;;;;;;13.93;10.98;;;13.60;99.90;;;;;;4922714;29;20052;-76
2021/09/14 04:12:58;;;;;;;11.65;10.30;;;13.60;99.90;;;;;;4920984;29;20075;-77
2021/09/14 04:15:24;;;;;;;14.73;10.85;;;13.60;99.90;;;;;;4916539;29;20389;-77
2021/09/14 04:17:50;;;;;;;10.93;9.75;;;13.60;99.90;;;;;;4915747;29;20617;-77
2021/09/14 04:20:15;;;;;;;11.27;9.85;;;13.60;99.90;;;;;;4915879;29;20028;-77
2021/09/14 04:22:41;;;;;;;11.02;9.85;;;13.60;99.90;;;;;;4916432;29;20397;-77
2021/09/14 04:25:07;;;;;;;11.25;9.43;;;13.60;99.90;;;;;;4915826;29;20032;-78
2021/09/14 04:27:32;;;;;;;12.10;10.52;;;13.60;99.90;;;;;;4917644;29;20032;-77
2021/09/14 04:29:58;;;;;;;11.13;9.88;;;13.60;99.90;;;;;;4916033;29;20044;-76
2021/09/14 04:32:23;;;;;;;10.60;9.50;;;13.60;99.90;;;;;;4915540;29;20388;-77
2021/09/14 04:34:49;;;;;;;11.05;9.85;;;13.50;99.90;;;;;;4916194;29;20397;-77
2021/09/14 04:37:15;;;;;;;12.75;10.43;;;13.50;99.90;;;;;;4915232;29;20039;-77
2021/09/14 04:39:40;;;;;;;12.43;10.55;;;13.50;99.90;;;;;;4917342;29;20020;-78
2021/09/14 04:42:06;;;;;;;10.82;9.65;;;13.50;99.90;;;;;;4916114;29;20036;-77
2021/09/14 04:44:31;;;;;;;11.07;9.88;;;13.50;99.90;;;;;;4915262;29;20024;-77
2021/09/14 04:46:57;;;;;;;12.70;10.05;;;13.50;99.90;;;;;;4915803;29;20434;-76
2021/09/14 04:49:22;;;;;;;10.90;9.80;;;13.50;99.90;;;;;;4915841;29;20397;-76
2021/09/14 04:51:48;;;;;;;13.27;11.63;;;13.50;99.90;;;;;;4918756;29;20035;-76
2021/09/14 04:54:13;;;;;;;11.20;9.80;;;13.50;99.90;;;;;;4922614;29;20083;-77
2021/09/14 04:56:39;;;;;;;11.27;9.73;;;13.50;99.90;;;;;;4920510;29;20044;-77
2021/09/14 04:59:04;;;;;;;10.25;9.15;;;13.50;99.90;;;;;;4935724;29;20099;-77
2021/09/14 05:01:30;;;;;;;11.65;9.75;;;13.50;99.90;;;;;;4925180;29;20528;-77
2021/09/14 05:03:56;;;;;;;11.93;10.68;;;13.40;99.90;;;;;;4924755;29;20027;-77
2021/09/14 05:06:21;;;;;;;11.23;9.85;;;13.40;99.90;;;;;;4932136;29;20492;-80
2021/09/14 05:08:47;;;;;;;11.63;10.40;;;13.40;99.90;;;;;;4934739;29;20051;-75
2021/09/14 05:11:13;;;;;;;11.65;10.35;;;13.40;99.90;;;;;;4934504;29;20106;-74
2021/09/14 05:13:39;;;;;;;11.68;10.38;;;13.40;99.90;;;;;;4935236;29;20020;-76
2021/09/14 05:16:05;;;;;;;12.27;10.50;;;13.40;99.90;;;;;;4932149;29;20028;-75
2021/09/14 05:18:31;;;;;;;12.55;10.20;;;13.30;99.90;;;;;;4934037;29;20038;-75
2021/09/14 05:20:57;;;;;;;12.73;11.43;;;13.30;99.90;;;;;;4933015;29;20030;-75
2021/09/14 05:23:35;;;;;;;11.57;10.48;;;13.30;99.90;;;;;;4934660;29;20024;-73
2021/09/14 05:26:03;;;;;;;10.77;9.65;;;13.30;99.90;;;;;;4932881;29;20023;-82
2021/09/14 05:28:29;;;;;;;13.05;11.23;;;13.30;99.90;;;;;;4933621;29;20032;-85
2021/09/14 05:30:55;;;;;;;11.27;9.65;;;13.20;99.90;;;;;;4934051;29;20099;-81
2021/09/14 05:33:20;;;;;;;13.10;10.85;;;13.10;99.90;;;;;;4935559;29;20031;-82
2021/09/14 05:35:51;;;;;;;15.15;12.07;;;13.10;99.90;;;;;;4933142;29;20392;-86
2021/09/14 05:38:19;;;;;;;16.92;12.32;;;13.10;99.90;;;;;;4933921;29;20031;-81
2021/09/14 05:40:46;;;;;;;13.70;12.23;;;13.10;99.90;;;;;;4933814;29;20511;-71
2021/09/14 05:43:12;;;;;;;13.05;10.80;;;13.10;99.90;;;;;;4935205;29;20028;-72
2021/09/14 05:45:37;;;;;;;16.77;12.30;;;13.10;99.90;;;;;;4932674;29;20485;-72
2021/09/14 05:48:03;;;;;;;16.23;12.07;;;13.10;99.90;;;;;;4932327;29;20083;-78
2021/09/14 05:50:29;;;;;;;15.43;12.85;;;13.10;99.90;;;;;;4922163;29;20035;-74
2021/09/14 05:52:55;;;;;;;15.05;12.73;;;13.20;99.90;;;;;;4931556;29;20036;-71
2021/09/14 05:55:21;;;;;;;15.32;12.38;;;13.20;99.90;;;;;;4923163;29;20020;-71
2021/09/14 05:57:47;;;;;;;13.98;12.52;;;13.20;99.90;;;;;;4930475;29;20035;-71
2021/09/14 06:00:13;;;;;;;14.40;12.18;;;13.30;99.90;;;;;;4933055;29;20048;-71
2021/09/14 06:02:39;;;;;;;13.35;11.73;;;13.40;99.90;;;;;;4933019;29;20373;-69
2021/09/14 06:05:06;;;;;;;13.15;11.75;;;13.40;99.90;;;;;;4934327;29;20023;-71
2021/09/14 06:07:31;;;;;;;14.57;12.43;;;13.50;99.90;;;;;;4936742;29;20540;-69
2021/09/14 06:09:57;;;;;;;15.02;11.68;;;13.60;99.90;;;;;;4917524;29;20056;-71
2021/09/14 06:12:24;;;;;;;14.57;12.20;;;13.70;99.90;;;;;;4914074;29;20024;-70
2021/09/14 06:14:49;;;;;;;16.45;12.88;;;13.70;99.90;;;;;;4916037;29;20028;-72
2021/09/14 06:17:15;;;;;;;16.48;12.60;;;13.80;99.90;;;;;;4912728;29;20050;-71
2021/09/14 06:19:41;;;;;;;15.63;12.88;;;13.90;99.90;;;;;;4916763;29;20422;-71
2021/09/14 06:22:06;;;;;;;14.23;12.18;;;14.00;99.90;;;;;;4916839;29;20055;-69
2021/09/14 06:24:32;;;;;;;14.73;13.18;;;14.00;99.90;;;;;;4920430;29;20115;-70
2021/09/14 06:26:58;;;;;;;14.95;12.85;;;14.10;99.90;;;;;;4934493;29;20046;-70
2021/09/14 06:29:23;;;;;;;13.93;12.18;;;14.10;99.90;;;;;;4938046;29;20031;-70
2021/09/14 06:31:49;;;;;;;14.85;12.82;;;14.20;99.90;;;;;;4938054;29;20048;-70
2021/09/14 06:34:15;;;;;;;14.48;12.88;;;14.30;99.90;;;;;;4938505;29;20094;-70
2021/09/14 06:36:40;;;;;;;13.90;11.95;;;14.40;99.90;;;;;;4937217;29;20031;-70
2021/09/14 06:39:06;;;;;;;13.65;12.25;;;14.40;99.90;;;;;;4937935;29;20464;-74
2021/09/14 06:41:31;;;;;;;13.40;12.00;;;14.50;99.90;;;;;;4938817;29;20031;-71
2021/09/14 06:43:58;;;;;;;16.55;13.82;;;14.50;99.90;;;;;;4937366;29;20044;-70
2021/09/14 06:46:24;;;;;;;14.73;12.82;;;14.60;99.90;;;;;;4937591;29;20389;-73
2021/09/14 06:48:50;;;;;;;15.18;12.80;;;14.60;99.90;;;;;;4938724;29;20023;-73
2021/09/14 06:51:15;;;;;;;13.93;12.45;;;14.70;99.90;;;;;;4937339;29;20039;-70
2021/09/14 06:53:41;;;;;;;14.93;13.32;;;14.70;99.90;;;;;;4937057;29;20020;-77
2021/09/14 06:56:07;;;;;;;15.05;13.32;;;14.80;99.90;;;;;;4937916;29;20102;-70
2021/09/14 06:58:33;;;;;;;14.73;13.07;;;14.80;99.90;;;;;;4936364;29;20031;-71
2021/09/14 07:00:58;;;;;;;13.73;12.40;;;14.90;99.90;;;;;;4937916;29;20377;-71
2021/09/14 07:03:24;;;;;;;15.30;12.52;;;14.90;99.90;;;;;;4936892;29;20467;-74
2021/09/14 07:05:50;;;;;;;19.50;13.40;;;15.00;99.90;;;;;;4937336;29;20039;-70
2021/09/14 07:08:15;;;;;;;14.75;13.15;;;15.00;99.90;;;;;;4936429;29;20078;-75
2021/09/14 07:10:41;;;;;;;16.20;14.02;;;15.10;99.90;;;;;;4937934;29;20027;-73
2021/09/14 07:13:06;;;;;;;13.13;11.82;;;15.10;99.90;;;;;;4935947;29;20479;-73
2021/09/14 07:15:32;;;;;;;13.70;12.20;;;15.20;99.90;;;;;;4936576;29;20362;-70
2021/09/14 07:17:58;;;;;;;15.23;13.38;;;15.20;99.90;;;;;;4937649;29;20381;-70
2021/09/14 07:20:23;;;;;;;13.48;12.07;;;15.20;99.90;;;;;;4937314;29;20079;-70
2021/09/14 07:22:49;;;;;;;14.50;12.43;;;15.30;99.90;;;;;;4937584;29;20036;-75
2021/09/14 07:25:14;;;;;;;14.07;12.60;;;15.30;99.90;;;;;;4937468;29;20503;-70
2021/09/14 07:27:40;;;;;;;13.50;12.05;;;15.40;99.90;;;;;;4936935;29;20024;-73
2021/09/14 07:30:07;;;;;;;13.18;11.88;;;15.30;99.90;;;;;;4937508;29;20051;-70
2021/09/14 07:32:32;;;;;;;12.95;11.65;;;15.40;99.90;;;;;;4936310;29;20024;-69
2021/09/14 07:34:58;;;;;;;15.18;11.98;;;15.40;99.90;;;;;;4936709;29;20027;-70
2021/09/14 07:37:24;;;;;;;13.10;11.80;;;15.40;99.90;;;;;;4937423;29;20044;-74
2021/09/14 07:39:49;;;;;;;13.43;12.13;;;15.50;99.90;;;;;;4937149;29;20027;-70
2021/09/14 07:42:15;;;;;;;13.88;12.52;;;15.50;99.90;;;;;;4934981;29;20502;-69
2021/09/14 07:44:41;;;;;;;15.00;12.18;;;15.60;99.90;;;;;;4937291;29;20032;-69
2021/09/14 07:47:07;;;;;;;13.07;11.68;;;15.70;99.90;;;;;;4936543;29;20382;-70
2021/09/14 07:49:33;;;;;;;15.20;12.05;;;15.70;99.90;;;;;;4936978;29;20476;-70
2021/09/14 07:51:59;;;;;;;14.20;12.70;;;15.70;99.90;;;;;;4935824;29;20049;-71
2021/09/14 07:54:26;;;;;;;14.23;12.35;;;15.70;99.90;;;;;;4936371;29;20472;-70
2021/09/14 07:56:51;;;;;;;15.07;13.48;;;15.80;99.90;;;;;;4937099;29;20063;-73
2021/09/14 07:59:17;;;;;;;13.85;12.32;;;15.70;99.90;;;;;;4935515;29;20484;-70
2021/09/14 08:01:42;;;;;;;13.63;12.25;;;15.70;99.90;;;;;;4935118;29;20038;-71
2021/09/14 08:04:08;;;;;;;13.35;12.00;;;15.80;99.90;;;;;;4935503;29;20016;-71
2021/09/14 08:06:34;;;;;;;13.65;11.10;;;15.70;99.90;;;;;;4936887;29;20099;-71
2021/09/14 08:08:59;;;;;;;11.80;10.55;;;15.80;99.90;;;;;;4934460;29;20019;-72
2021/09/14 08:11:25;;;;;;;12.52;11.25;;;15.80;99.90;;;;;;4936935;29;20452;-71
2021/09/14 08:13:51;;;;;;;13.35;11.95;;;15.80;99.90;;;;;;4936996;29;20107;-72
2021/09/14 08:16:17;;;;;;;13.25;11.82;;;15.80;99.90;;;;;;4934488;29;20038;-72
2021/09/14 08:18:43;;;;;;;13.30;11.95;;;15.80;99.90;;;;;;4936852;29;20036;-71
2021/09/14 08:21:09;;;;;;;14.55;13.07;;;15.80;99.90;;;;;;4935413;29;20083;-73
2021/09/14 08:23:34;;;;;;;13.73;12.32;;;15.80;99.90;;;;;;4935004;29;20020;-71
2021/09/14 08:26:01;;;;;;;14.02;12.43;;;15.80;99.90;;;;;;4936259;29;20047;-70
2021/09/14 08:28:28;;;;;;;13.65;12.25;;;15.90;99.90;;;;;;4936520;29;20024;-75
2021/09/14 08:30:53;;;;;;;13.80;12.38;;;15.90;99.90;;;;;;4935493;29;20123;-70
2021/09/14 08:33:19;;;;;;;14.32;12.82;;;15.90;99.90;;;;;;4935160;29;20171;-70
2021/09/14 08:35:44;;;;;;;14.68;12.90;;;15.90;99.90;;;;;;4936453;29;20098;-70
2021/09/14 08:38:10;;;;;;;13.18;11.82;;;15.90;99.90;;;;;;4935325;29;20539;-70
2021/09/14 08:40:36;;;;;;;14.10;12.70;;;16.00;99.90;;;;;;4936283;29;20028;-70
2021/09/14 08:43:02;;;;;;;14.32;12.82;;;16.00;99.90;;;;;;4935951;29;20038;-70
2021/09/14 08:45:28;;;;;;;15.98;13.15;;;16.00;99.90;;;;;;4935660;29;20083;-71
2021/09/14 08:47:54;;;;;;;13.40;12.10;;;16.10;99.90;;;;;;4935979;29;20032;-70
2021/09/14 08:50:23;;;;;;;15.60;12.75;;;16.10;99.90;;;;;;4936284;29;20036;-70
2021/09/14 08:52:49;;;;;;;17.40;13.23;;;16.10;99.90;;;;;;4935014;29;20031;-73
2021/09/14 08:55:16;;;;;;;14.95;13.45;;;16.10;99.90;;;;;;4935661;29;20099;-71
2021/09/14 08:57:49;;;;;;;15.23;13.55;;;16.10;99.90;;;;;;4934063;29;20063;-70
2021/09/14 09:00:15;;;;;;;14.75;13.23;;;16.20;99.90;;;;;;4935607;29;20053;-76
2021/09/14 09:02:40;;;;;;;16.20;13.07;;;16.20;99.90;;;;;;4934860;29;20079;-71
2021/09/14 09:05:06;;;;;;;14.10;12.52;;;16.30;99.90;;;;;;4935013;29;20404;-71
2021/09/14 09:07:36;;;;;;;13.65;12.25;;;16.30;99.90;;;;;;4934660;29;20035;-70
2021/09/14 09:10:09;;;;;;;13.45;12.07;;;16.40;99.90;;;;;;4935485;29;20020;-71
2021/09/14 09:12:39;;;;;;;14.30;12.90;;;16.40;99.90;;;;;;4935204;29;20042;-71
2021/09/14 09:15:05;;;;;;;14.70;13.13;;;16.50;99.90;;;;;;4935642;29;20071;-72
2021/09/14 09:17:30;;;;;;;14.90;13.40;;;16.60;99.90;;;;;;4935197;29;20448;-71
2021/09/14 09:19:58;;;;;;;14.25;12.93;;;16.60;99.90;;;;;;4934653;29;20030;-72
2021/09/14 09:22:25;;;;;;;18.80;13.65;;;16.70;99.90;;;;;;4935753;29;20107;-70
2021/09/14 09:24:53;;;;;;;14.15;12.75;;;16.80;99.90;;;;;;4934457;29;20126;-74
2021/09/14 09:27:27;;;;;;;13.68;12.25;;;16.90;99.90;;;;;;4935112;29;20377;-71
2021/09/14 09:30:04;;;;;;;15.75;13.65;;;17.00;99.90;;;;;;4934159;29;20032;-71
2021/09/14 09:32:50;;;;;;;15.80;13.98;;;17.10;99.90;;;;;;4935572;29;20054;-71
2021/09/14 09:35:27;;;;;;;13.93;12.63;;;17.20;99.90;;;;;;4934011;29;20047;-71
2021/09/14 09:37:54;;;;;;;15.27;13.80;;;17.30;99.90;;;;;;4935415;29;20548;-74
2021/09/14 09:40:24;;;;;;;14.60;13.20;;;17.40;99.90;;;;;;4934908;29;20377;-70
2021/09/14 09:42:50;;;;;;;23.75;16.63;;;17.60;99.90;;;;;;4934353;29;20066;-71
2021/09/14 09:45:19;;;;;;;23.77;15.90;;;17.70;99.90;;;;;;4935207;29;20055;-72
2021/09/14 09:47:48;;;;;;;17.23;13.30;;;17.90;99.90;;;;;;4934609;29;20441;-71
2021/09/14 09:50:15;;;;;;;16.45;12.80;;;18.00;99.90;;;;;;4935159;29;20028;-71
2021/09/14 09:52:45;;;;;;;16.17;12.15;;;18.00;99.90;;;;;;4935390;29;20019;-72
2021/09/14 09:55:12;;;;;;;13.20;11.90;;;18.20;99.90;;;;;;4933470;29;20016;-71
2021/09/14 09:57:38;;;;;;;13.82;12.40;;;18.40;99.90;;;;;;4934156;29;20330;-71
2021/09/14 10:00:12;;;;;;;13.52;12.23;;;18.50;99.90;;;;;;4933733;29;20023;-72
2021/09/14 10:02:44;;;;;;;12.77;11.48;;;18.60;99.90;;;;;;4934986;29;20031;-71
2021/09/14 10:05:12;;;;;;;13.38;12.18;;;18.80;99.90;;;;;;4938007;29;20377;-70
2021/09/14 10:07:42;;;;;;;12.30;11.10;;;18.90;99.90;;;;;;4939087;29;20057;-70
2021/09/14 10:10:08;;;;;;;13.18;11.75;;;19.00;99.90;;;;;;4936824;29;20388;-70
2021/09/14 10:12:34;;;;;;;12.07;10.23;;;19.10;99.90;;;;;;4939179;29;20031;-71
2021/09/14 10:15:05;;;;;;;13.65;12.35;;;19.20;99.90;;;;;;4937987;29;20034;-72
2021/09/14 10:17:32;;;;;;;12.23;11.07;;;19.40;99.90;;;;;;4939116;29;20095;-75
2021/09/14 10:20:11;;;;;;;25.52;12.93;;;19.50;99.90;;;;;;4937392;29;20031;-76
2021/09/14 10:22:37;;;;;;;13.35;11.93;;;19.60;99.90;;;;;;4937347;29;20036;-83
2021/09/14 10:25:05;;;;;;;14.02;12.38;;;19.70;99.90;;;;;;4938705;29;20024;-71
2021/09/14 10:27:43;;;;;;;13.20;11.90;;;19.90;99.90;;;;;;4936577;29;20087;-78
2021/09/14 10:30:13;;;;;;;12.85;11.68;;;19.90;99.90;;;;;;4937089;29;20505;-71
2021/09/14 10:32:41;;;;;;;11.80;10.63;;;20.00;99.90;;;;;;4937653;29;20024;-71
2021/09/14 10:35:09;;;;;;;13.48;11.90;;;20.00;99.90;;;;;;4937835;29;20031;-74
2021/09/14 10:37:36;;;;;;;12.57;11.38;;;20.10;99.90;;;;;;4938612;29;20103;-71
2021/09/14 10:40:13;;;;;;;12.27;11.15;;;20.10;99.90;;;;;;4937087;29;20032;-70
2021/09/14 10:42:44;;;;;;;13.38;11.98;;;20.10;99.90;;;;;;4936544;29;20396;-70
2021/09/14 10:45:13;;;;;;;14.82;13.32;;;20.10;99.90;;;;;;4938084;29;20027;-71
2021/09/14 10:47:41;;;;;;;17.10;12.85;;;20.10;99.90;;;;;;4937019;29;20023;-71
2021/09/14 10:50:09;;;;;;;12.77;11.48;;;20.10;99.90;;;;;;4937556;29;20469;-71
2021/09/14 10:52:37;;;;;;;12.60;11.30;;;20.20;99.90;;;;;;4938412;29;20019;-77
2021/09/14 10:55:13;;;;;;;14.85;13.43;;;20.20;99.90;;;;;;4937886;29;20031;-72
2021/09/14 10:57:41;;;;;;;14.07;12.77;;;20.10;99.90;;;;;;4937064;29;20094;-71
2021/09/14 11:00:15;;;;;;;13.35;12.05;;;20.20;99.90;;;;;;4938042;29;20560;-70
2021/09/14 11:02:41;;;;;;;13.13;11.80;;;20.10;99.90;;;;;;4936366;29;20032;-71
2021/09/14 11:05:09;;;;;;;13.35;10.82;;;20.10;99.90;;;;;;4937759;29;20033;-75
2021/09/14 11:07:36;;;;;;;12.60;11.45;;;20.10;99.90;;;;;;4936799;29;20016;-71
2021/09/14 11:10:11;;;;;;;12.48;11.27;;;20.10;99.90;;;;;;4937179;29;20172;-71
2021/09/14 11:12:36;;;;;;;12.27;11.18;;;20.10;99.90;;;;;;4938209;29;20066;-72
2021/09/14 11:15:03;;;;;;;13.13;11.82;;;20.10;99.90;;;;;;4935419;29;20445;-71
2021/09/14 11:17:33;;;;;;;15.18;12.02;;;20.10;99.90;;;;;;4935902;29;20071;-70
2021/09/14 11:20:19;;;;;;;13.63;12.30;;;20.10;99.90;;;;;;4937531;29;20032;-73
2021/09/14 11:22:48;;;;;;;13.85;12.40;;;20.10;99.90;;;;;;4938011;29;20027;-71
2021/09/14 11:25:22;;;;;;;12.70;11.50;;;20.10;99.90;;;;;;4936816;29;20031;-70
2021/09/14 11:28:09;;;;;;;12.82;11.63;;;20.10;99.90;;;;;;4937621;29;20028;-71
2021/09/14 11:30:35;;;;;;;13.73;12.30;;;20.00;99.90;;;;;;4935630;29;20051;-71
2021/09/14 11:33:02;;;;;;;14.88;13.30;;;20.10;99.90;;;;;;4937293;29;20102;-71
2021/09/14 11:35:36;;;;;;;14.27;12.77;;;20.20;99.90;;;;;;4936480;29;20392;-71
2021/09/14 11:38:07;;;;;;;13.77;12.35;;;20.20;99.90;;;;;;4936324;29;20058;-71
2021/09/14 11:40:35;;;;;;;;;;;20.20;99.90;;;;;;4937886;29;20482;-70
2021/09/14 11:43:03;;;;;;;12.95;11.50;;;20.20;99.90;;;;;;4935939;29;19993;-71
2021/09/14 11:45:31;;;;;;;14.90;13.20;;;20.20;99.90;;;;;;4935368;29;20028;-70
2021/09/14 11:47:59;;;;;;;13.90;12.60;;;20.30;99.90;;;;;;4936909;29;20106;-71
2021/09/14 11:50:26;;;;;;;13.43;12.20;;;20.30;99.90;;;;;;4937377;29;20031;-70
2021/09/14 11:53:13;;;;;;;13.68;11.40;;;20.30;99.90;;;;;;4935441;29;20472;-70
2021/09/14 11:55:47;;;;;;;13.57;12.15;;;20.40;99.90;;;;;;4937212;29;20024;-70
2021/09/14 11:58:14;;;;;;;13.38;11.98;;;20.50;99.90;;;;;;4935442;29;20039;-70
2021/09/14 12:00:47;;;;;;;13.88;12.45;;;20.60;99.90;;;;;;4935246;29;20020;-70
2021/09/14 12:03:18;;;;;;;13.15;11.85;;;20.70;99.90;;;;;;4936815;29;20042;-69
2021/09/14 12:05:57;;;;;;;14.60;13.05;;;20.80;99.90;;;;;;4936751;29;20171;-72
2021/09/14 12:08:30;;;;;;;12.68;11.48;;;21.00;99.90;;;;;;4936833;29;20034;-73
2021/09/14 12:10:56;;;;;;;11.10;10.00;;;21.10;99.90;;;;;;4936748;29;20048;-70
2021/09/14 12:13:22;;;;;;;11.80;10.60;;;21.20;99.90;;;;;;4934985;29;20020;-70
2021/09/14 12:15:49;;;;;;;13.20;11.75;;;21.30;99.90;;;;;;4936779;29;20032;-75
2021/09/14 12:18:16;;;;;;;11.20;10.10;;;21.30;99.90;;;;;;4936488;29;20035;-70
2021/09/14 12:20:43;;;;;;;11.63;10.23;;;21.40;99.90;;;;;;4934832;29;20030;-71
2021/09/14 12:23:10;;;;;;;10.23;9.25;;;21.50;99.90;;;;;;4936382;29;20065;-70
2021/09/14 12:25:35;;;;;;;10.13;8.90;;;21.50;99.90;;;;;;4936475;29;20417;-74
2021/09/14 12:28:01;;;;;;;10.82;9.73;;;21.60;99.90;;;;;;4934487;29;20028;-71
2021/09/14 12:30:27;;;;;;;10.75;8.85;;;21.60;99.90;;;;;;4936675;29;20056;-70
2021/09/14 12:32:52;;;;;;;9.30;8.18;;;21.70;99.90;;;;;;4935183;29;20027;-74
2021/09/14 12:35:18;;;;;;;9.27;8.18;;;21.70;99.90;;;;;;4935628;29;20031;-69
2021/09/14 12:37:43;;;;;;;7.93;7.13;;;21.80;99.90;;;;;;4934976;29;20051;-70
2021/09/14 12:40:10;;;;;;;10.13;8.38;;;21.90;99.90;;;;;;4936156;29;20487;-70
2021/09/14 12:42:35;;;;;;;8.75;7.95;;;21.90;99.90;;;;;;4935861;29;20408;-71
2021/09/14 12:45:01;;;;;;;10.60;8.43;;;22.00;99.90;;;;;;4936072;29;20023;-70
2021/09/14 12:47:27;;;;;;;7.30;6.60;;;22.10;99.90;;;;;;4935274;29;20027;-70
2021/09/14 12:49:52;;;;;;;9.27;8.32;;;22.30;99.90;;;;;;4935587;29;20027;-73
2021/09/14 12:52:18;;;;;;;10.20;9.10;;;22.30;99.90;;;;;;4936182;29;20043;-78
2021/09/14 12:54:43;;;;;;;10.23;9.15;;;22.40;99.90;;;;;;4934852;29;20028;-71
2021/09/14 12:57:09;;;;;;;8.77;7.97;;;22.50;99.90;;;;;;4935537;29;20039;-71
2021/09/14 12:59:34;;;;;;;8.63;7.80;;;22.50;99.90;;;;;;4934983;29;20498;-70
2021/09/14 13:02:00;;;;;;;8.15;7.35;;;22.60;99.90;;;;;;4933771;29;20031;-72
2021/09/14 13:04:25;;;;;;;9.30;7.70;;;22.70;99.90;;;;;;4936326;29;20052;-73
2021/09/14 13:06:51;;;;;;;7.25;6.57;;;22.80;99.90;;;;;;4935995;29;20115;-73
2021/09/14 13:09:16;;;;;;;7.53;6.78;;;23.00;99.90;;;;;;4934786;29;20532;-70
2021/09/14 13:11:42;;;;;;;8.77;7.20;;;23.10;99.90;;;;;;4934685;29;20034;-71
2021/09/14 13:16:52;;;;;;;7.05;5.43;;;23.20;99.90;;;;;;4927278;29;20046;-71
2021/09/14 13:19:18;;;;;;;6.00;5.40;;;23.30;99.90;;;;;;4933396;29;20112;-75
2021/09/14 13:21:43;;;;;;;8.32;5.95;;;23.20;99.90;;;;;;4928714;29;20066;-72
2021/09/14 13:24:09;;;;;;;6.88;6.18;;;23.10;99.90;;;;;;4914725;29;20021;-73
2021/09/14 13:26:34;;;;;;;7.30;6.50;;;23.00;99.90;;;;;;4920901;29;20100;-73